• Join FlightAware (Why Join?)
  • Login
  • US Flag 
12:38AM EDT


 

Airport Tracker/Info


-or-


 

Live Flight TrackerFlight Track Log ✈ FLG3432 ✈ 29-Apr-2013 ✈ KJFK - KDCA

Flight Track Log - Related Links

Times and Time Zones

All times are in EDT time to prevent confusion due to time zone crossing. See the FLG3432 flight status page for this flight to view local times or setup timezone preferences in your user account.

Time Position Orientation Groundspeed Altitude Reporting Facility
EDT Latitude Longitude Course Direction KTS MPH feet Rate Location/Type
09:03AM 40.6167 -73.7833 270° West 157 181 1,900  Level New York TRACON
09:04AM 40.5500 -73.7833 180° South 229 264 3,700 2,400 Climbing New York TRACON
09:05AM 40.4449 -74.0661 233° Southwest  Level FlightAware Approximate
09:05AM 40.4833 -73.8000 191° South 256 295 6,700  Level New York TRACON
09:06AM 40.3810 -74.1755 233° Southwest  Level FlightAware Approximate
09:06AM 40.4500 -73.8833 242° Southwest 261 300 9,800  Level New York TRACON
09:07AM 40.3164 -74.2839 232° Southwest  Level FlightAware Approximate
09:07AM 40.4000 -73.9833 237° Southwest 315 362 10,700  Level New York TRACON
09:08AM 40.2500 -74.3880 270° West  Level FlightAware Approximate
09:08AM 40.3606 -74.0994 246° West 340 391 12,900  Level New York Center
09:09AM 40.3325 -74.2069 251° West 340 391 15,300 2,040 Climbing New York Center
09:10AM 40.3097 -74.3419 258° West 348 400 17,000 1,380 Climbing New York Center
09:11AM 40.2869 -74.4686 257° West 362 417 18,100 1,380 Climbing New York Center
09:12AM 40.2642 -74.5981 257° West 362 417 19,900 900 Climbing New York Center
09:13AM 40.2431 -74.7328 258° West 374 430 20,000  Climbing New York Center
09:14AM 40.2172 -74.8753 257° West 401 461 20,000  Level New York Center
09:15AM 40.1958 -75.0100 258° West 394 453 20,000  Level New York Center
09:16AM 40.1742 -75.1444 258° West 389 448 20,000  Level New York Center
09:17AM 40.1506 -75.2733 257° West 384 442 20,000  Level New York Center
09:18AM 40.1161 -75.4069 251° West 384 442 20,000  Level New York Center
09:19AM 40.0456 -75.5053 227° Southwest 376 433 20,000  Level New York Center
09:20AM 39.9706 -75.6058 226° Southwest 381 438 20,000  Level New York Center
09:21AM 39.9103 -75.7017 231° Southwest 386 444 20,000  Level New York Center
09:22AM 39.8433 -75.8053 230° Southwest 386 444 20,000  Level New York Center
09:23AM 39.7764 -75.9086 230° Southwest 386 444 20,000 -360 Level New York Center
09:24AM 39.7158 -76.0092 232° Southwest 381 438 19,300 -960 Descending New York Center
09:25AM 39.6578 -76.0914 227° Southwest 342 394 18,200 -1,560 Descending New York Center
09:26AM 39.5667 -76.2333 230° Southwest 296 341 15,500 -1,680 Descending Potomac TRACON
09:27AM 39.5167 -76.3167 232° Southwest 290 334 14,000 -1,500 Descending Potomac TRACON
09:28AM 39.4833 -76.3833 237° Southwest 291 335 12,700 -1,020 Descending Potomac TRACON
09:29AM 39.4167 -76.4500 218° Southwest 290 334 12,000 -360 Descending Potomac TRACON
09:30AM 39.3500 -76.5167 218° Southwest 289 333 12,000 -480 Level Potomac TRACON
09:31AM 39.2833 -76.5667 210° Southwest 292 336 11,200 -960 Descending Potomac TRACON
09:32AM 39.2167 -76.6167 210° Southwest 286 329 10,200 -660 Descending Potomac TRACON
09:33AM 39.1500 -76.6833 218° Southwest 286 329 10,000 -120 Descending Potomac TRACON
09:34AM 39.1000 -76.7333 218° Southwest 284 327 10,000 -420 Level Potomac TRACON
09:35AM 39.0500 -76.8000 226° Southwest 283 326 9,300 -1,080 Descending Potomac TRACON
09:36AM 39.0000 -76.8667 226° Southwest 274 315 7,900 -1,680 Descending Potomac TRACON
09:37AM 38.9333 -76.9333 218° Southwest 270 311 6,200 -1,020 Descending Potomac TRACON
09:38AM 38.8667 -76.9500 191° South 259 298 6,000 -660 Descending Potomac TRACON
09:39AM 38.8000 -76.9500 180° South 260 299 4,900 -1,200 Descending Potomac TRACON
09:40AM 38.7333 -76.9500 180° South 241 277 3,700 -1,200 Descending Potomac TRACON
09:41AM 38.6667 -76.9500 180° South 225 259 2,500 -600 Descending Potomac TRACON
09:42AM 38.6667 -77.0167 270° West 238 274 2,500 -360 Level Potomac TRACON
09:43AM 38.7333 -77.0167 360° North 222 255 1,900 -600 Descending Potomac TRACON
09:44AM 38.7833 -77.0333 345° North 175 201 1,400 -720 Descending Potomac TRACON
09:45AM 38.8167 -77.0333 360° North 159 183 600 -300 Descending Potomac TRACON
09:46AM 38.8500 -77.0333 360° North 154 177 900 720 Climbing Potomac TRACON
09:47AM 38.8667 -76.9500 76° East 206 237 2,100 1,020 Climbing Potomac TRACON
09:48AM 38.8167 -76.9167 153° Southeast 211 243 3,000 420 Climbing Potomac TRACON
09:49AM 38.7667 -76.9167 180° South 188 216 3,000  Level Potomac TRACON
09:50AM 38.7167 -76.9333 195° South 196 226 3,000 -120 Level Potomac TRACON
09:51AM 38.6667 -76.9500 195° South 204 235 2,800 -300 Descending Potomac TRACON
09:52AM 38.6667 -77.0167 270° West 226 260 2,500 -300 Descending Potomac TRACON
09:53AM 38.7167 -77.0333 345° North 212 244 2,200 -540 Descending Potomac TRACON
09:54AM 38.7833 -77.0333 360° North 187 215 1,500 -720 Descending Potomac TRACON